sensor_id;sensor_type;location;lat;lon;timestamp;temperature;humidity
1181;DHT22;579;52.046;8.532;2022-09-30T00:01:04;9.00;1.00
1181;DHT22;579;52.046;8.532;2022-09-30T00:06:18;9.10;1.00
1181;DHT22;579;52.046;8.532;2022-09-30T00:08:46;8.90;1.00
1181;DHT22;579;52.046;8.532;2022-09-30T00:11:16;8.70;1.00
1181;DHT22;579;52.046;8.532;2022-09-30T00:13:45;8.80;1.00
1181;DHT22;579;52.046;8.532;2022-09-30T00:16:13;9.00;1.00
1181;DHT22;579;52.046;8.532;2022-09-30T00:18:41;8.70;1.00
1181;DHT22;579;52.046;8.532;2022-09-30T00:21:10;8.70;1.00
1181;DHT22;579;52.046;8.532;2022-09-30T00:26:19;8.60;1.00
1181;DHT22;579;52.046;8.532;2022-09-30T00:28:49;8.70;1.00
1181;DHT22;579;52.046;8.532;2022-09-30T00:31:18;8.60;1.00
1181;DHT22;579;52.046;8.532;2022-09-30T00:33:46;8.60;1.00
1181;DHT22;579;52.046;8.532;2022-09-30T00:36:32;8.50;1.00
1181;DHT22;579;52.046;8.532;2022-09-30T00:38:59;8.70;1.00
1181;DHT22;579;52.046;8.532;2022-09-30T00:46:00;8.30;1.00
1181;DHT22;579;52.046;8.532;2022-09-30T00:48:29;8.40;1.00
1181;DHT22;579;52.046;8.532;2022-09-30T00:50:57;8.40;1.00
1181;DHT22;579;52.046;8.532;2022-09-30T00:53:28;8.50;1.00
1181;DHT22;579;52.046;8.532;2022-09-30T00:55:58;8.40;1.00
1181;DHT22;579;52.046;8.532;2022-09-30T00:58:29;8.40;1.00
1181;DHT22;579;52.046;8.532;2022-09-30T01:03:49;8.30;1.00
1181;DHT22;579;52.046;8.532;2022-09-30T01:06:19;8.30;1.00
1181;DHT22;579;52.046;8.532;2022-09-30T01:08:48;8.20;1.00
1181;DHT22;579;52.046;8.532;2022-09-30T01:11:15;8.40;1.00
1181;DHT22;579;52.046;8.532;2022-09-30T01:13:44;8.40;1.00
1181;DHT22;579;52.046;8.532;2022-09-30T01:16:22;8.60;1.00
1181;DHT22;579;52.046;8.532;2022-09-30T01:27:01;8.30;1.00
1181;DHT22;579;52.046;8.532;2022-09-30T01:32:59;8.20;1.00
1181;DHT22;579;52.046;8.532;2022-09-30T01:35:55;7.90;1.00
1181;DHT22;579;52.046;8.532;2022-09-30T01:43:03;8.00;1.00
1181;DHT22;579;52.046;8.532;2022-09-30T01:45:37;7.90;1.00
1181;DHT22;579;52.046;8.532;2022-09-30T01:48:13;8.10;1.00
1181;DHT22;579;52.046;8.532;2022-09-30T01:50:48;7.90;1.00
1181;DHT22;579;52.046;8.532;2022-09-30T01:53:24;7.90;1.00
1181;DHT22;579;52.046;8.532;2022-09-30T01:55:57;7.80;1.00
1181;DHT22;579;52.046;8.532;2022-09-30T02:02:31;7.70;1.00
1181;DHT22;579;52.046;8.532;2022-09-30T02:05:01;7.80;1.00
1181;DHT22;579;52.046;8.532;2022-09-30T02:07:36;7.70;1.00
1181;DHT22;579;52.046;8.532;2022-09-30T02:10:09;7.70;1.00
1181;DHT22;579;52.046;8.532;2022-09-30T02:12:43;7.60;1.00
1181;DHT22;579;52.046;8.532;2022-09-30T02:15:17;7.60;1.00
1181;DHT22;579;52.046;8.532;2022-09-30T02:20:30;7.80;1.00
1181;DHT22;579;52.046;8.532;2022-09-30T02:23:02;7.50;1.00
1181;DHT22;579;52.046;8.532;2022-09-30T02:25:34;7.50;1.00
1181;DHT22;579;52.046;8.532;2022-09-30T02:28:07;7.70;1.00
1181;DHT22;579;52.046;8.532;2022-09-30T02:30:38;7.80;1.00
1181;DHT22;579;52.046;8.532;2022-09-30T02:33:11;7.50;1.00
1181;DHT22;579;52.046;8.532;2022-09-30T02:40:03;7.40;1.00
1181;DHT22;579;52.046;8.532;2022-09-30T02:42:35;7.90;1.00
1181;DHT22;579;52.046;8.532;2022-09-30T02:45:06;7.50;1.00
1181;DHT22;579;52.046;8.532;2022-09-30T02:47:47;7.60;1.00
1181;DHT22;579;52.046;8.532;2022-09-30T02:50:28;7.50;1.00
1181;DHT22;579;52.046;8.532;2022-09-30T02:53:06;7.50;1.00
1181;DHT22;579;52.046;8.532;2022-09-30T02:59:28;7.40;1.00
1181;DHT22;579;52.046;8.532;2022-09-30T03:01:56;7.40;1.00
1181;DHT22;579;52.046;8.532;2022-09-30T03:04:25;7.30;1.00
1181;DHT22;579;52.046;8.532;2022-09-30T03:06:53;7.20;1.00
1181;DHT22;579;52.046;8.532;2022-09-30T03:09:24;7.10;1.00
1181;DHT22;579;52.046;8.532;2022-09-30T03:11:52;7.00;1.00
1181;DHT22;579;52.046;8.532;2022-09-30T03:17:25;7.40;1.00
1181;DHT22;579;52.046;8.532;2022-09-30T03:20:12;7.30;1.00
1181;DHT22;579;52.046;8.532;2022-09-30T03:22:57;7.30;1.00
1181;DHT22;579;52.046;8.532;2022-09-30T03:25:40;7.50;1.00
1181;DHT22;579;52.046;8.532;2022-09-30T03:28:17;7.50;1.00
1181;DHT22;579;52.046;8.532;2022-09-30T03:30:54;7.40;1.00
1181;DHT22;579;52.046;8.532;2022-09-30T03:35:00;7.10;1.00
1181;DHT22;579;52.046;8.532;2022-09-30T03:37:33;7.20;1.00
1181;DHT22;579;52.046;8.532;2022-09-30T03:40:15;7.10;1.00
1181;DHT22;579;52.046;8.532;2022-09-30T03:42:53;7.00;1.00
1181;DHT22;579;52.046;8.532;2022-09-30T03:45:27;7.00;1.00
1181;DHT22;579;52.046;8.532;2022-09-30T03:48:00;7.20;1.00
1181;DHT22;579;52.046;8.532;2022-09-30T03:54:28;7.20;1.00
1181;DHT22;579;52.046;8.532;2022-09-30T03:56:55;7.30;1.00
1181;DHT22;579;52.046;8.532;2022-09-30T03:59:23;7.20;1.00
1181;DHT22;579;52.046;8.532;2022-09-30T04:01:52;7.10;1.00
1181;DHT22;579;52.046;8.532;2022-09-30T04:04:19;7.00;1.00
1181;DHT22;579;52.046;8.532;2022-09-30T04:06:46;7.10;1.00
1181;DHT22;579;52.046;8.532;2022-09-30T04:09:13;7.10;1.00
1181;DHT22;579;52.046;8.532;2022-09-30T04:11:55;7.20;1.00
1181;DHT22;579;52.046;8.532;2022-09-30T04:14:21;7.20;1.00
1181;DHT22;579;52.046;8.532;2022-09-30T04:16:48;7.10;1.00
1181;DHT22;579;52.046;8.532;2022-09-30T04:19:15;7.00;1.00
1181;DHT22;579;52.046;8.532;2022-09-30T04:21:41;7.30;1.00
1181;DHT22;579;52.046;8.532;2022-09-30T04:24:08;7.50;1.00
1181;DHT22;579;52.046;8.532;2022-09-30T04:26:35;7.60;1.00
1181;DHT22;579;52.046;8.532;2022-09-30T04:31:41;7.20;1.00
1181;DHT22;579;52.046;8.532;2022-09-30T04:34:08;7.10;1.00
1181;DHT22;579;52.046;8.532;2022-09-30T04:36:36;7.10;1.00
1181;DHT22;579;52.046;8.532;2022-09-30T04:39:04;7.30;1.00
1181;DHT22;579;52.046;8.532;2022-09-30T04:41:30;7.00;1.00
1181;DHT22;579;52.046;8.532;2022-09-30T04:43:59;7.00;1.00
1181;DHT22;579;52.046;8.532;2022-09-30T04:49:23;6.80;1.00
1181;DHT22;579;52.046;8.532;2022-09-30T04:51:50;6.80;1.00
1181;DHT22;579;52.046;8.532;2022-09-30T04:54:16;6.70;1.00
1181;DHT22;579;52.046;8.532;2022-09-30T04:56:43;6.70;1.00
1181;DHT22;579;52.046;8.532;2022-09-30T04:59:11;6.70;1.00
1181;DHT22;579;52.046;8.532;2022-09-30T05:01:37;6.80;1.00
1181;DHT22;579;52.046;8.532;2022-09-30T05:04:07;6.90;1.00
1181;DHT22;579;52.046;8.532;2022-09-30T05:09:14;6.70;1.00
1181;DHT22;579;52.046;8.532;2022-09-30T05:11:41;6.70;1.00
1181;DHT22;579;52.046;8.532;2022-09-30T05:14:07;7.00;1.00
1181;DHT22;579;52.046;8.532;2022-09-30T05:16:35;6.80;1.00
1181;DHT22;579;52.046;8.532;2022-09-30T05:19:02;6.70;1.00
1181;DHT22;579;52.046;8.532;2022-09-30T05:21:29;6.80;1.00
1181;DHT22;579;52.046;8.532;2022-09-30T05:23:56;7.00;1.00
1181;DHT22;579;52.046;8.532;2022-09-30T05:29:00;6.70;1.00
1181;DHT22;579;52.046;8.532;2022-09-30T05:31:27;6.70;1.00
1181;DHT22;579;52.046;8.532;2022-09-30T05:33:54;6.60;1.00
1181;DHT22;579;52.046;8.532;2022-09-30T05:36:20;6.60;1.00
1181;DHT22;579;52.046;8.532;2022-09-30T05:38:49;6.60;1.00
1181;DHT22;579;52.046;8.532;2022-09-30T05:41:17;6.60;1.00
1181;DHT22;579;52.046;8.532;2022-09-30T05:43:45;6.70;1.00
1181;DHT22;579;52.046;8.532;2022-09-30T05:48:56;6.60;1.00
1181;DHT22;579;52.046;8.532;2022-09-30T05:51:23;6.90;1.00
1181;DHT22;579;52.046;8.532;2022-09-30T05:53:50;6.90;1.00
1181;DHT22;579;52.046;8.532;2022-09-30T05:56:17;6.70;1.00
1181;DHT22;579;52.046;8.532;2022-09-30T05:58:44;6.80;1.00
1181;DHT22;579;52.046;8.532;2022-09-30T06:01:13;6.80;1.00
1181;DHT22;579;52.046;8.532;2022-09-30T06:03:41;7.10;1.00
1181;DHT22;579;52.046;8.532;2022-09-30T06:08:47;7.00;1.00
1181;DHT22;579;52.046;8.532;2022-09-30T06:11:15;6.90;1.00
1181;DHT22;579;52.046;8.532;2022-09-30T06:13:44;7.00;1.00
1181;DHT22;579;52.046;8.532;2022-09-30T06:16:12;7.10;1.00
1181;DHT22;579;52.046;8.532;2022-09-30T06:18:39;7.40;1.00
1181;DHT22;579;52.046;8.532;2022-09-30T06:21:07;7.10;1.00
1181;DHT22;579;52.046;8.532;2022-09-30T06:26:16;7.40;1.00
1181;DHT22;579;52.046;8.532;2022-09-30T06:28:42;7.30;1.00
1181;DHT22;579;52.046;8.532;2022-09-30T06:31:09;7.20;1.00
1181;DHT22;579;52.046;8.532;2022-09-30T06:33:36;7.30;1.00
1181;DHT22;579;52.046;8.532;2022-09-30T06:36:04;7.50;1.00
1181;DHT22;579;52.046;8.532;2022-09-30T06:38:32;7.30;1.00
1181;DHT22;579;52.046;8.532;2022-09-30T06:41:03;7.40;1.00
1181;DHT22;579;52.046;8.532;2022-09-30T06:43:44;7.50;1.00
1181;DHT22;579;52.046;8.532;2022-09-30T06:46:11;7.60;1.00
1181;DHT22;579;52.046;8.532;2022-09-30T06:48:38;7.60;1.00
1181;DHT22;579;52.046;8.532;2022-09-30T06:51:05;7.60;1.00
1181;DHT22;579;52.046;8.532;2022-09-30T06:53:35;7.80;1.00
1181;DHT22;579;52.046;8.532;2022-09-30T06:56:02;7.80;1.00
1181;DHT22;579;52.046;8.532;2022-09-30T06:58:30;7.90;1.00
1181;DHT22;579;52.046;8.532;2022-09-30T07:03:30;8.40;1.00
1181;DHT22;579;52.046;8.532;2022-09-30T07:05:59;8.40;1.00
1181;DHT22;579;52.046;8.532;2022-09-30T07:08:31;8.40;1.00
1181;DHT22;579;52.046;8.532;2022-09-30T07:11:01;8.80;1.00
1181;DHT22;579;52.046;8.532;2022-09-30T07:13:30;9.10;1.00
1181;DHT22;579;52.046;8.532;2022-09-30T07:15:57;9.10;1.00
1181;DHT22;579;52.046;8.532;2022-09-30T07:18:25;9.40;1.00
1181;DHT22;579;52.046;8.532;2022-09-30T07:23:32;9.40;1.00
1181;DHT22;579;52.046;8.532;2022-09-30T07:26:01;9.70;1.00
1181;DHT22;579;52.046;8.532;2022-09-30T07:28:31;10.00;1.00
1181;DHT22;579;52.046;8.532;2022-09-30T07:31:01;10.00;1.00
1181;DHT22;579;52.046;8.532;2022-09-30T07:33:32;10.30;1.00
1181;DHT22;579;52.046;8.532;2022-09-30T07:36:00;10.40;1.00
1181;DHT22;579;52.046;8.532;2022-09-30T07:38:30;10.60;1.00
1181;DHT22;579;52.046;8.532;2022-09-30T07:41:18;10.70;1.00
1181;DHT22;579;52.046;8.532;2022-09-30T07:43:47;10.80;1.00
1181;DHT22;579;52.046;8.532;2022-09-30T07:46:15;11.10;1.00
1181;DHT22;579;52.046;8.532;2022-09-30T07:48:46;11.40;1.00
1181;DHT22;579;52.046;8.532;2022-09-30T07:51:18;11.70;1.00
1181;DHT22;579;52.046;8.532;2022-09-30T07:53:50;12.00;1.00
1181;DHT22;579;52.046;8.532;2022-09-30T08:01:03;12.40;1.00
1181;DHT22;579;52.046;8.532;2022-09-30T08:03:36;12.90;1.00
1181;DHT22;579;52.046;8.532;2022-09-30T08:06:05;12.80;1.00
1181;DHT22;579;52.046;8.532;2022-09-30T08:08:32;13.10;1.00
1181;DHT22;579;52.046;8.532;2022-09-30T08:10:59;12.80;1.00
1181;DHT22;579;52.046;8.532;2022-09-30T08:13:26;12.90;1.00
1181;DHT22;579;52.046;8.532;2022-09-30T08:15:54;13.10;1.00
1181;DHT22;579;52.046;8.532;2022-09-30T08:21:02;13.90;1.00
1181;DHT22;579;52.046;8.532;2022-09-30T08:23:29;13.70;1.00
1181;DHT22;579;52.046;8.532;2022-09-30T08:26:00;13.80;1.00
1181;DHT22;579;52.046;8.532;2022-09-30T08:28:28;13.90;1.00
1181;DHT22;579;52.046;8.532;2022-09-30T08:31:03;14.30;1.00
1181;DHT22;579;52.046;8.532;2022-09-30T08:33:30;14.70;1.00
1181;DHT22;579;52.046;8.532;2022-09-30T08:38:43;14.60;1.00
1181;DHT22;579;52.046;8.532;2022-09-30T08:41:22;14.80;1.00
1181;DHT22;579;52.046;8.532;2022-09-30T08:44:03;14.80;1.00
1181;DHT22;579;52.046;8.532;2022-09-30T08:46:40;14.80;1.00
1181;DHT22;579;52.046;8.532;2022-09-30T08:49:27;15.00;1.00
1181;DHT22;579;52.046;8.532;2022-09-30T08:52:01;15.30;1.00
1181;DHT22;579;52.046;8.532;2022-09-30T08:57:11;15.70;1.00
1181;DHT22;579;52.046;8.532;2022-09-30T08:59:43;15.50;1.00
1181;DHT22;579;52.046;8.532;2022-09-30T09:02:15;15.90;1.00
1181;DHT22;579;52.046;8.532;2022-09-30T09:04:47;16.20;1.00
1181;DHT22;579;52.046;8.532;2022-09-30T09:07:22;16.30;1.00
1181;DHT22;579;52.046;8.532;2022-09-30T09:10:06;16.40;1.00
1181;DHT22;579;52.046;8.532;2022-09-30T09:17:38;17.00;1.00
1181;DHT22;579;52.046;8.532;2022-09-30T09:20:18;17.10;1.00
1181;DHT22;579;52.046;8.532;2022-09-30T09:22:47;17.30;1.00
1181;DHT22;579;52.046;8.532;2022-09-30T09:25:16;17.50;1.00
1181;DHT22;579;52.046;8.532;2022-09-30T09:27:51;17.40;1.00
1181;DHT22;579;52.046;8.532;2022-09-30T09:30:21;17.50;1.00
1181;DHT22;579;52.046;8.532;2022-09-30T09:37:26;17.20;1.00
1181;DHT22;579;52.046;8.532;2022-09-30T09:40:16;17.20;1.00
1181;DHT22;579;52.046;8.532;2022-09-30T09:42:59;17.30;1.00
1181;DHT22;579;52.046;8.532;2022-09-30T09:45:35;17.30;1.00
1181;DHT22;579;52.046;8.532;2022-09-30T09:48:07;17.00;1.00
1181;DHT22;579;52.046;8.532;2022-09-30T09:50:41;16.20;1.00
1181;DHT22;579;52.046;8.532;2022-09-30T09:58:06;16.40;1.00
1181;DHT22;579;52.046;8.532;2022-09-30T10:00:33;16.40;1.00
1181;DHT22;579;52.046;8.532;2022-09-30T10:03:16;16.10;1.00
1181;DHT22;579;52.046;8.532;2022-09-30T10:05:45;16.10;1.00
1181;DHT22;579;52.046;8.532;2022-09-30T10:08:25;16.00;1.00
1181;DHT22;579;52.046;8.532;2022-09-30T10:10:56;15.80;1.00
1181;DHT22;579;52.046;8.532;2022-09-30T10:18:00;16.00;1.00
1181;DHT22;579;52.046;8.532;2022-09-30T10:20:29;16.00;1.00
1181;DHT22;579;52.046;8.532;2022-09-30T10:23:07;16.10;1.00
1181;DHT22;579;52.046;8.532;2022-09-30T10:25:35;16.10;1.00
1181;DHT22;579;52.046;8.532;2022-09-30T10:28:19;16.10;1.00
1181;DHT22;579;52.046;8.532;2022-09-30T10:30:50;16.10;1.00
1181;DHT22;579;52.046;8.532;2022-09-30T10:37:32;16.20;1.00
1181;DHT22;579;52.046;8.532;2022-09-30T10:40:02;16.30;1.00
1181;DHT22;579;52.046;8.532;2022-09-30T10:42:33;16.20;1.00
1181;DHT22;579;52.046;8.532;2022-09-30T10:45:06;16.00;1.00
1181;DHT22;579;52.046;8.532;2022-09-30T10:47:44;16.10;1.00
1181;DHT22;579;52.046;8.532;2022-09-30T10:50:15;15.90;1.00
1181;DHT22;579;52.046;8.532;2022-09-30T10:55:32;16.10;1.00
1181;DHT22;579;52.046;8.532;2022-09-30T10:58:20;16.20;1.00
1181;DHT22;579;52.046;8.532;2022-09-30T11:01:14;16.20;1.00
1181;DHT22;579;52.046;8.532;2022-09-30T11:03:53;16.30;1.00
1181;DHT22;579;52.046;8.532;2022-09-30T11:06:22;16.40;1.00
1181;DHT22;579;52.046;8.532;2022-09-30T11:08:54;16.50;1.00
1181;DHT22;579;52.046;8.532;2022-09-30T11:15:35;16.10;1.00
1181;DHT22;579;52.046;8.532;2022-09-30T11:18:16;16.50;1.00
1181;DHT22;579;52.046;8.532;2022-09-30T11:20:49;16.20;1.00
1181;DHT22;579;52.046;8.532;2022-09-30T11:23:26;16.30;1.00
1181;DHT22;579;52.046;8.532;2022-09-30T11:26:01;16.30;1.00
1181;DHT22;579;52.046;8.532;2022-09-30T11:28:41;16.60;1.00
1181;DHT22;579;52.046;8.532;2022-09-30T11:35:13;16.70;1.00
1181;DHT22;579;52.046;8.532;2022-09-30T11:38:05;16.70;1.00
1181;DHT22;579;52.046;8.532;2022-09-30T11:40:37;16.60;1.00
1181;DHT22;579;52.046;8.532;2022-09-30T11:43:17;16.60;1.00
1181;DHT22;579;52.046;8.532;2022-09-30T11:51:38;17.40;1.00
1181;DHT22;579;52.046;8.532;2022-09-30T11:54:23;17.90;1.00
1181;DHT22;579;52.046;8.532;2022-09-30T11:57:02;18.10;1.00
1181;DHT22;579;52.046;8.532;2022-09-30T11:59:37;18.00;1.00
1181;DHT22;579;52.046;8.532;2022-09-30T12:02:17;17.60;1.00
1181;DHT22;579;52.046;8.532;2022-09-30T12:04:55;17.60;1.00
1181;DHT22;579;52.046;8.532;2022-09-30T12:11:39;18.30;1.00
1181;DHT22;579;52.046;8.532;2022-09-30T12:14:14;18.20;1.00
1181;DHT22;579;52.046;8.532;2022-09-30T12:16:45;17.80;1.00
1181;DHT22;579;52.046;8.532;2022-09-30T12:19:15;18.00;1.00
1181;DHT22;579;52.046;8.532;2022-09-30T12:21:50;18.10;1.00
1181;DHT22;579;52.046;8.532;2022-09-30T12:24:27;18.20;1.00
1181;DHT22;579;52.046;8.532;2022-09-30T12:31:56;17.90;1.00
1181;DHT22;579;52.046;8.532;2022-09-30T12:34:43;17.90;1.00
1181;DHT22;579;52.046;8.532;2022-09-30T12:37:35;17.70;1.00
1181;DHT22;579;52.046;8.532;2022-09-30T12:40:20;17.90;1.00
1181;DHT22;579;52.046;8.532;2022-09-30T12:49:18;18.30;1.00
1181;DHT22;579;52.046;8.532;2022-09-30T12:51:50;18.40;1.00
1181;DHT22;579;52.046;8.532;2022-09-30T12:54:22;18.40;1.00
1181;DHT22;579;52.046;8.532;2022-09-30T12:56:54;18.30;1.00
1181;DHT22;579;52.046;8.532;2022-09-30T12:59:27;18.30;1.00
1181;DHT22;579;52.046;8.532;2022-09-30T13:01:55;18.30;1.00
1181;DHT22;579;52.046;8.532;2022-09-30T13:08:15;17.70;1.00
1181;DHT22;579;52.046;8.532;2022-09-30T13:10:56;17.80;1.00
1181;DHT22;579;52.046;8.532;2022-09-30T13:13:26;17.80;1.00
1181;DHT22;579;52.046;8.532;2022-09-30T13:15:57;18.30;1.00
1181;DHT22;579;52.046;8.532;2022-09-30T13:18:59;18.80;1.00
1181;DHT22;579;52.046;8.532;2022-09-30T13:21:27;18.30;1.00
1181;DHT22;579;52.046;8.532;2022-09-30T13:26:36;18.70;1.00
1181;DHT22;579;52.046;8.532;2022-09-30T13:29:27;18.60;1.00
1181;DHT22;579;52.046;8.532;2022-09-30T13:32:04;18.30;1.00
1181;DHT22;579;52.046;8.532;2022-09-30T13:34:47;18.40;1.00
1181;DHT22;579;52.046;8.532;2022-09-30T13:37:36;18.20;1.00
1181;DHT22;579;52.046;8.532;2022-09-30T13:40:15;18.00;1.00
1181;DHT22;579;52.046;8.532;2022-09-30T13:46:35;18.10;1.00
1181;DHT22;579;52.046;8.532;2022-09-30T13:49:13;18.30;1.00
1181;DHT22;579;52.046;8.532;2022-09-30T13:51:43;18.40;1.00
1181;DHT22;579;52.046;8.532;2022-09-30T13:54:16;18.50;1.00
1181;DHT22;579;52.046;8.532;2022-09-30T13:56:50;18.70;1.00
1181;DHT22;579;52.046;8.532;2022-09-30T13:59:40;18.80;1.00
1181;DHT22;579;52.046;8.532;2022-09-30T14:05:16;18.80;1.00
1181;DHT22;579;52.046;8.532;2022-09-30T14:08:30;18.60;1.00
1181;DHT22;579;52.046;8.532;2022-09-30T14:11:21;18.30;1.00
1181;DHT22;579;52.046;8.532;2022-09-30T14:14:05;18.50;1.00
1181;DHT22;579;52.046;8.532;2022-09-30T14:17:00;18.30;1.00
1181;DHT22;579;52.046;8.532;2022-09-30T14:22:26;18.00;1.00
1181;DHT22;579;52.046;8.532;2022-09-30T14:24:55;18.00;1.00
1181;DHT22;579;52.046;8.532;2022-09-30T14:27:47;18.20;1.00
1181;DHT22;579;52.046;8.532;2022-09-30T14:30:21;18.50;1.00
1181;DHT22;579;52.046;8.532;2022-09-30T14:32:52;18.40;1.00
1181;DHT22;579;52.046;8.532;2022-09-30T14:35:22;18.30;1.00
1181;DHT22;579;52.046;8.532;2022-09-30T14:42:00;18.80;1.00
1181;DHT22;579;52.046;8.532;2022-09-30T14:44:31;19.40;1.00
1181;DHT22;579;52.046;8.532;2022-09-30T14:47:02;19.80;1.00
1181;DHT22;579;52.046;8.532;2022-09-30T14:49:32;20.40;1.00
1181;DHT22;579;52.046;8.532;2022-09-30T14:52:01;21.70;1.00
1181;DHT22;579;52.046;8.532;2022-09-30T14:54:30;22.40;1.00
1181;DHT22;579;52.046;8.532;2022-09-30T14:59:41;24.30;1.00
1181;DHT22;579;52.046;8.532;2022-09-30T15:02:13;25.50;1.00
1181;DHT22;579;52.046;8.532;2022-09-30T15:04:46;25.60;1.00
1181;DHT22;579;52.046;8.532;2022-09-30T15:07:14;26.40;1.00
1181;DHT22;579;52.046;8.532;2022-09-30T15:09:42;24.90;1.00
1181;DHT22;579;52.046;8.532;2022-09-30T15:12:12;23.60;1.00
1181;DHT22;579;52.046;8.532;2022-09-30T15:17:39;20.80;1.00
1181;DHT22;579;52.046;8.532;2022-09-30T15:20:25;21.10;1.00
1181;DHT22;579;52.046;8.532;2022-09-30T15:22:56;23.00;1.00
1181;DHT22;579;52.046;8.532;2022-09-30T15:25:24;24.00;1.00
1181;DHT22;579;52.046;8.532;2022-09-30T15:27:51;24.20;1.00
1181;DHT22;579;52.046;8.532;2022-09-30T15:30:24;25.30;1.00
1181;DHT22;579;52.046;8.532;2022-09-30T15:38:09;21.70;1.00
1181;DHT22;579;52.046;8.532;2022-09-30T15:40:43;20.90;1.00
1181;DHT22;579;52.046;8.532;2022-09-30T15:43:19;20.20;1.00
1181;DHT22;579;52.046;8.532;2022-09-30T15:46:15;19.50;1.00
1181;DHT22;579;52.046;8.532;2022-09-30T15:48:44;18.70;1.00
1181;DHT22;579;52.046;8.532;2022-09-30T15:51:30;18.30;1.00
1181;DHT22;579;52.046;8.532;2022-09-30T15:56:35;18.20;1.00
1181;DHT22;579;52.046;8.532;2022-09-30T15:59:05;18.00;1.00
1181;DHT22;579;52.046;8.532;2022-09-30T16:01:36;18.20;1.00
1181;DHT22;579;52.046;8.532;2022-09-30T16:04:07;18.30;1.00
1181;DHT22;579;52.046;8.532;2022-09-30T16:06:44;18.00;1.00
1181;DHT22;579;52.046;8.532;2022-09-30T16:09:24;18.00;1.00
1181;DHT22;579;52.046;8.532;2022-09-30T16:16:02;17.60;1.00
1181;DHT22;579;52.046;8.532;2022-09-30T16:18:30;17.70;1.00
1181;DHT22;579;52.046;8.532;2022-09-30T16:20:58;17.60;1.00
1181;DHT22;579;52.046;8.532;2022-09-30T16:23:28;17.60;1.00
1181;DHT22;579;52.046;8.532;2022-09-30T16:26:19;17.70;1.00
1181;DHT22;579;52.046;8.532;2022-09-30T16:28:49;17.70;1.00
1181;DHT22;579;52.046;8.532;2022-09-30T16:34:01;18.00;1.00
1181;DHT22;579;52.046;8.532;2022-09-30T16:36:28;17.90;1.00
1181;DHT22;579;52.046;8.532;2022-09-30T16:38:54;17.70;1.00
1181;DHT22;579;52.046;8.532;2022-09-30T16:41:20;17.60;1.00
1181;DHT22;579;52.046;8.532;2022-09-30T16:43:47;17.80;1.00
1181;DHT22;579;52.046;8.532;2022-09-30T16:46:13;17.70;1.00
1181;DHT22;579;52.046;8.532;2022-09-30T16:48:40;17.70;1.00
1181;DHT22;579;52.046;8.532;2022-09-30T16:55:31;17.80;1.00
1181;DHT22;579;52.046;8.532;2022-09-30T16:57:58;17.60;1.00
1181;DHT22;579;52.046;8.532;2022-09-30T17:00:25;17.60;1.00
1181;DHT22;579;52.046;8.532;2022-09-30T17:02:53;17.50;1.00
1181;DHT22;579;52.046;8.532;2022-09-30T17:05:21;17.30;1.00
1181;DHT22;579;52.046;8.532;2022-09-30T17:07:52;17.20;1.00
1181;DHT22;579;52.046;8.532;2022-09-30T17:10:22;17.10;1.00
1181;DHT22;579;52.046;8.532;2022-09-30T17:14:15;16.70;1.00
1181;DHT22;579;52.046;8.532;2022-09-30T17:16:42;16.60;1.00
1181;DHT22;579;52.046;8.532;2022-09-30T17:19:11;16.80;1.00
1181;DHT22;579;52.046;8.532;2022-09-30T17:21:37;16.30;1.00
1181;DHT22;579;52.046;8.532;2022-09-30T17:24:03;16.30;1.00
1181;DHT22;579;52.046;8.532;2022-09-30T17:26:30;16.10;1.00
1181;DHT22;579;52.046;8.532;2022-09-30T17:28:57;16.00;1.00
1181;DHT22;579;52.046;8.532;2022-09-30T17:35:03;15.70;1.00
1181;DHT22;579;52.046;8.532;2022-09-30T17:37:32;15.50;1.00
1181;DHT22;579;52.046;8.532;2022-09-30T17:39:59;15.50;1.00
1181;DHT22;579;52.046;8.532;2022-09-30T17:42:26;15.20;1.00
1181;DHT22;579;52.046;8.532;2022-09-30T17:45:22;15.40;1.00
1181;DHT22;579;52.046;8.532;2022-09-30T17:47:52;15.30;1.00
1181;DHT22;579;52.046;8.532;2022-09-30T17:53:01;14.90;1.00
1181;DHT22;579;52.046;8.532;2022-09-30T17:55:29;14.70;1.00
1181;DHT22;579;52.046;8.532;2022-09-30T17:57:55;14.70;1.00
1181;DHT22;579;52.046;8.532;2022-09-30T18:00:21;14.80;1.00
1181;DHT22;579;52.046;8.532;2022-09-30T18:02:48;14.80;1.00
1181;DHT22;579;52.046;8.532;2022-09-30T18:05:14;14.60;1.00
1181;DHT22;579;52.046;8.532;2022-09-30T18:07:42;14.60;1.00
1181;DHT22;579;52.046;8.532;2022-09-30T18:12:50;14.50;1.00
1181;DHT22;579;52.046;8.532;2022-09-30T18:15:17;14.40;1.00
1181;DHT22;579;52.046;8.532;2022-09-30T18:17:45;14.20;1.00
1181;DHT22;579;52.046;8.532;2022-09-30T18:20:12;14.10;1.00
1181;DHT22;579;52.046;8.532;2022-09-30T18:22:39;14.10;1.00
1181;DHT22;579;52.046;8.532;2022-09-30T18:25:07;14.10;1.00
1181;DHT22;579;52.046;8.532;2022-09-30T18:27:47;14.00;1.00
1181;DHT22;579;52.046;8.532;2022-09-30T18:32:53;13.80;1.00
1181;DHT22;579;52.046;8.532;2022-09-30T18:35:21;13.70;1.00
1181;DHT22;579;52.046;8.532;2022-09-30T18:37:49;13.60;1.00
1181;DHT22;579;52.046;8.532;2022-09-30T18:40:17;13.60;1.00
1181;DHT22;579;52.046;8.532;2022-09-30T18:42:46;13.60;1.00
1181;DHT22;579;52.046;8.532;2022-09-30T18:45:13;13.60;1.00
1181;DHT22;579;52.046;8.532;2022-09-30T18:50:22;13.40;1.00
1181;DHT22;579;52.046;8.532;2022-09-30T18:52:50;13.40;1.00
1181;DHT22;579;52.046;8.532;2022-09-30T18:55:17;13.30;1.00
1181;DHT22;579;52.046;8.532;2022-09-30T18:57:43;13.30;1.00
1181;DHT22;579;52.046;8.532;2022-09-30T19:00:13;13.30;1.00
1181;DHT22;579;52.046;8.532;2022-09-30T19:02:41;13.20;1.00
1181;DHT22;579;52.046;8.532;2022-09-30T19:05:09;13.10;1.00
1181;DHT22;579;52.046;8.532;2022-09-30T19:10:10;13.30;1.00
1181;DHT22;579;52.046;8.532;2022-09-30T19:12:38;13.20;1.00
1181;DHT22;579;52.046;8.532;2022-09-30T19:15:11;13.60;1.00
1181;DHT22;579;52.046;8.532;2022-09-30T19:17:40;13.50;1.00
1181;DHT22;579;52.046;8.532;2022-09-30T19:20:07;13.60;1.00
1181;DHT22;579;52.046;8.532;2022-09-30T19:22:34;13.80;1.00
1181;DHT22;579;52.046;8.532;2022-09-30T19:27:53;13.70;1.00
1181;DHT22;579;52.046;8.532;2022-09-30T19:30:20;13.70;1.00
1181;DHT22;579;52.046;8.532;2022-09-30T19:32:48;14.10;1.00
1181;DHT22;579;52.046;8.532;2022-09-30T19:35:17;14.20;1.00
1181;DHT22;579;52.046;8.532;2022-09-30T19:37:45;14.20;1.00
1181;DHT22;579;52.046;8.532;2022-09-30T19:40:12;14.60;1.00
1181;DHT22;579;52.046;8.532;2022-09-30T19:42:38;14.60;1.00
1181;DHT22;579;52.046;8.532;2022-09-30T19:47:42;14.70;1.00
1181;DHT22;579;52.046;8.532;2022-09-30T19:50:09;14.80;1.00
1181;DHT22;579;52.046;8.532;2022-09-30T19:52:35;14.80;1.00
1181;DHT22;579;52.046;8.532;2022-09-30T19:55:02;15.00;1.00
1181;DHT22;579;52.046;8.532;2022-09-30T19:57:28;15.00;1.00
1181;DHT22;579;52.046;8.532;2022-09-30T19:59:55;14.80;1.00
1181;DHT22;579;52.046;8.532;2022-09-30T20:02:21;15.00;1.00
1181;DHT22;579;52.046;8.532;2022-09-30T20:07:23;15.00;1.00
1181;DHT22;579;52.046;8.532;2022-09-30T20:09:49;15.30;1.00
1181;DHT22;579;52.046;8.532;2022-09-30T20:12:16;15.40;1.00
1181;DHT22;579;52.046;8.532;2022-09-30T20:14:43;15.10;1.00
1181;DHT22;579;52.046;8.532;2022-09-30T20:17:27;15.00;1.00
1181;DHT22;579;52.046;8.532;2022-09-30T20:19:53;15.10;1.00
1181;DHT22;579;52.046;8.532;2022-09-30T20:25:20;15.00;1.00
1181;DHT22;579;52.046;8.532;2022-09-30T20:27:47;15.10;1.00
1181;DHT22;579;52.046;8.532;2022-09-30T20:30:14;15.20;1.00
1181;DHT22;579;52.046;8.532;2022-09-30T20:32:41;14.70;1.00
1181;DHT22;579;52.046;8.532;2022-09-30T20:35:08;14.50;1.00
1181;DHT22;579;52.046;8.532;2022-09-30T20:37:36;14.40;1.00
1181;DHT22;579;52.046;8.532;2022-09-30T20:40:05;14.40;1.00
1181;DHT22;579;52.046;8.532;2022-09-30T20:42:49;14.50;1.00
1181;DHT22;579;52.046;8.532;2022-09-30T20:45:16;14.40;1.00
1181;DHT22;579;52.046;8.532;2022-09-30T20:47:45;14.40;1.00
1181;DHT22;579;52.046;8.532;2022-09-30T20:50:12;14.40;1.00